Terminal Aerodrome Forecast
Issued by NWS

Home | Current Version | Previous Version | Text Only | Print | Product List | Glossary On
Versions: 1 2 3 4 5 6 7 8 9 10 11 12 13 14 15 16 17 18 19 20 21 22 23
000
FTUS44 KMAF 011200 AAA
TAFHOB
TAF AMD
KHOB 011247Z 0113/0212 25007KT P6SM FEW002 SCT200
      TEMPO 0113/0115 5SM BR BKN003
     FM011500 03014G20KT P6SM SCT040 BKN200
     FM012100 09007KT P6SM BKN040=

USA.gov is the U.S. government's official web portal to all federal, state and local government web resources and services.